Time;durP1;ratioP1;P1;durP2;ratioP2;P2;SDS_P1;SDS_P2;PMS_P1;PMS_P2;Temp;Humidity;BMP_temperature;BMP_pressure;BME280_temperature;BME280_humidity;BME280_pressure;Samples;Min_cycle;Max_cycle;Signal;HPM_P1;HPM_P2
2022/12/08 00:01:46;;;;;;;27.98;16.42;;;;;;;2.67;100.00;101041.47;5050283;28;20048;-66
2022/12/08 00:04:11;;;;;;;25.02;14.10;;;;;;;2.76;100.00;101042.47;5050278;28;20471;-67
2022/12/08 00:09:26;;;;;;;23.40;13.75;;;;;;;2.81;100.00;101040.22;5049973;28;20071;-67
2022/12/08 00:12:03;;;;;;;26.40;14.45;;;;;;;2.81;100.00;101032.34;5050203;28;20025;-66
2022/12/08 00:14:34;;;;;;;25.13;13.05;;;;;;;2.86;100.00;101035.38;5049985;28;20029;-66
2022/12/08 00:16:59;;;;;;;24.40;13.75;;;;;;;2.86;100.00;101024.84;5050290;28;20044;-66
2022/12/08 00:19:26;;;;;;;23.35;13.98;;;;;;;2.89;100.00;101018.47;5049974;28;20570;-67
2022/12/08 00:21:53;;;;;;;24.08;13.25;;;;;;;2.90;100.00;101015.66;5049926;28;20061;-67
2022/12/08 00:24:19;;;;;;;22.98;13.05;;;;;;;2.91;100.00;101019.13;5050058;28;20078;-66
2022/12/08 00:26:45;;;;;;;21.30;12.23;;;;;;;2.91;100.00;101014.72;5049875;28;20036;-66
2022/12/08 00:29:11;;;;;;;24.25;13.82;;;;;;;2.91;100.00;101009.44;5049926;28;20044;-67
2022/12/08 00:31:36;;;;;;;23.08;13.70;;;;;;;2.95;100.00;101012.59;5062741;28;20541;-66
2022/12/08 00:34:02;;;;;;;27.77;14.57;;;;;;;2.96;100.00;101011.63;5068943;28;20076;-66
2022/12/08 00:36:28;;;;;;;23.02;12.68;;;;;;;2.91;100.00;101009.44;5069016;28;20037;-66
2022/12/08 00:38:53;;;;;;;24.15;13.13;;;;;;;2.93;100.00;101004.84;5067541;28;20123;-67
2022/12/08 00:44:07;;;;;;;21.58;12.82;;;;;;;2.96;100.00;101001.09;5069182;28;20075;-66
2022/12/08 00:46:32;;;;;;;22.83;13.18;;;;;;;2.95;100.00;101004.69;5068822;28;20037;-66
2022/12/08 00:48:58;;;;;;;22.77;13.30;;;;;;;2.94;100.00;100993.34;5069023;28;20606;-66
2022/12/08 00:51:23;;;;;;;21.55;13.15;;;;;;;2.93;100.00;100993.47;5068607;28;20036;-66
2022/12/08 00:53:48;;;;;;;23.50;13.45;;;;;;;2.88;100.00;100991.25;5067882;28;20024;-67
2022/12/08 00:56:14;;;;;;;21.33;11.27;;;;;;;2.92;100.00;100989.19;5067965;28;20020;-66
2022/12/08 00:58:39;;;;;;;24.45;13.55;;;;;;;2.90;100.00;100994.59;5068687;28;20032;-66
2022/12/08 01:01:12;;;;;;;22.80;11.38;;;;;;;2.87;100.00;100976.44;5069011;28;20021;-66
2022/12/08 01:03:37;;;;;;;20.52;11.73;;;;;;;2.92;100.00;100981.28;5067253;28;20033;-66
2022/12/08 01:06:04;;;;;;;21.50;12.52;;;;;;;2.89;100.00;100971.88;5068715;28;20040;-66
2022/12/08 01:08:29;;;;;;;19.35;11.15;;;;;;;2.95;100.00;100979.19;5049135;28;20037;-67
2022/12/08 01:10:55;;;;;;;23.50;12.38;;;;;;;2.96;100.00;100980.00;5049232;28;20075;-67
2022/12/08 01:13:20;;;;;;;22.90;12.48;;;;;;;2.98;100.00;100980.69;5049381;28;20041;-66
2022/12/08 01:15:46;;;;;;;20.95;11.45;;;;;;;2.97;100.00;100971.97;5049521;28;20480;-67
2022/12/08 01:18:11;;;;;;;21.63;13.65;;;;;;;2.99;100.00;100970.03;5049397;28;20037;-66
2022/12/08 01:20:36;;;;;;;22.73;12.63;;;;;;;3.01;100.00;100976.00;5049349;28;20045;-67
2022/12/08 01:23:02;;;;;;;20.17;11.35;;;;;;;3.01;100.00;100976.00;5049249;28;20075;-66
2022/12/08 01:25:27;;;;;;;23.52;12.70;;;;;;;3.03;100.00;100974.03;5049446;28;20479;-66
2022/12/08 01:27:52;;;;;;;21.25;10.90;;;;;;;3.03;100.00;100974.03;5049521;28;20032;-66
2022/12/08 01:30:19;;;;;;;21.05;11.23;;;;;;;3.04;100.00;100978.34;5049735;28;20036;-67
2022/12/08 01:32:44;;;;;;;21.25;11.55;;;;;;;3.05;100.00;100979.97;5053018;28;20488;-66
2022/12/08 01:35:09;;;;;;;22.17;12.10;;;;;;;3.01;100.00;100975.13;5052927;28;20040;-66
2022/12/08 01:37:35;;;;;;;19.88;11.27;;;;;;;3.08;100.00;100976.22;5052727;28;20565;-67
2022/12/08 01:40:00;;;;;;;19.85;10.93;;;;;;;3.07;100.00;100983.31;5052986;28;20124;-67
2022/12/08 01:42:26;;;;;;;21.98;11.80;;;;;;;3.07;100.00;100977.22;5052878;28;20028;-66
2022/12/08 01:44:55;;;;;;;22.95;11.63;;;;;;;3.08;100.00;100978.88;5052887;28;20029;-67
2022/12/08 01:47:23;;;;;;;21.42;11.45;;;;;;;3.08;100.00;100973.59;5052644;28;20105;-66
2022/12/08 01:49:48;;;;;;;19.88;10.07;;;;;;;3.11;100.00;100972.47;5052667;28;20052;-66
2022/12/08 01:52:25;;;;;;;18.63;10.52;;;;;;;3.11;100.00;100968.03;5052667;28;20075;-65
2022/12/08 01:54:58;;;;;;;20.25;10.55;;;;;;;3.07;100.00;100962.22;5051864;28;20585;-65
2022/12/08 01:57:33;;;;;;;17.35;9.43;;;;;;;3.11;100.00;100954.03;5052033;28;20025;-66
2022/12/08 02:00:05;;;;;;;17.63;9.68;;;;;;;3.08;100.00;100957.78;5052385;28;20430;-66
2022/12/08 02:02:40;;;;;;;18.65;9.48;;;;;;;3.12;100.00;100953.03;5051898;28;20112;-66
2022/12/08 02:05:07;;;;;;;17.40;9.07;;;;;;;3.11;100.00;100954.84;5052217;28;20472;-66
2022/12/08 02:07:34;;;;;;;17.55;9.60;;;;;;;3.09;100.00;100946.25;5052401;28;20029;-66
2022/12/08 02:09:59;;;;;;;16.30;9.27;;;;;;;3.07;100.00;100946.41;5052177;28;20373;-65
2022/12/08 02:12:25;;;;;;;19.30;10.30;;;;;;;3.04;100.00;100938.81;5051909;28;20094;-65
2022/12/08 02:14:50;;;;;;;19.05;9.85;;;;;;;3.02;100.00;100932.84;5052119;28;20033;-65
2022/12/08 02:17:31;;;;;;;20.80;10.48;;;;;;;3.03;100.00;100939.78;5050590;28;20409;-65
2022/12/08 02:20:14;;;;;;;16.80;9.82;;;;;;;3.04;100.00;100946.72;5052039;28;20017;-66
2022/12/08 02:23:09;;;;;;;16.33;9.60;;;;;;;3.03;100.00;100937.13;5051814;28;20053;-65
2022/12/08 02:25:55;;;;;;;17.75;10.10;;;;;;;2.97;100.00;100923.72;5042923;28;20037;-66
2022/12/08 02:28:38;;;;;;;19.58;9.82;;;;;;;3.03;100.00;100923.97;5051966;28;20028;-65
2022/12/08 02:31:25;;;;;;;17.58;9.23;;;;;;;3.02;100.00;100921.50;5051930;28;20104;-65
2022/12/08 02:34:07;;;;;;;16.27;9.70;;;;;;;2.95;100.00;100905.41;5051861;28;20120;-65
2022/12/08 02:37:01;;;;;;;19.00;9.85;;;;;;;2.99;100.00;100908.63;5051700;28;20041;-66
2022/12/08 02:39:31;;;;;;;19.48;9.68;;;;;;;2.98;100.00;100901.66;5051638;28;20090;-66
2022/12/08 02:42:09;;;;;;;18.20;9.90;;;;;;;2.95;100.00;100901.97;5050708;28;20881;-65
2022/12/08 02:44:35;;;;;;;18.23;10.48;;;;;;;2.95;100.00;100900.16;5051684;28;20021;-65
2022/12/08 02:47:17;;;;;;;18.48;10.25;;;;;;;2.90;100.00;100888.41;5051554;28;20021;-66
2022/12/08 02:49:42;;;;;;;17.83;9.95;;;;;;;2.89;100.00;100884.13;5051350;28;20029;-66
2022/12/08 02:52:10;;;;;;;20.85;10.77;;;;;;;2.93;100.00;100888.94;5050961;28;20028;-65
2022/12/08 02:54:37;;;;;;;16.98;7.93;;;;;;;2.92;100.00;100887.28;5051238;28;20025;-65
2022/12/08 02:57:03;;;;;;;18.60;8.55;;;;;;;2.93;100.00;100881.03;5050848;28;20033;-65
2022/12/08 02:59:46;;;;;;;18.63;9.00;;;;;;;2.91;100.00;100874.25;5050905;28;20970;-66
2022/12/08 03:02:11;;;;;;;18.63;9.27;;;;;;;2.93;100.00;100878.38;5051346;28;20044;-66
2022/12/08 03:04:58;;;;;;;16.88;8.27;;;;;;;2.95;100.00;100873.81;5051150;28;20029;-66
2022/12/08 03:07:46;;;;;;;16.80;9.48;;;;;;;2.95;100.00;100875.63;5049823;28;20025;-66
2022/12/08 03:10:20;;;;;;;13.18;6.43;;;;;;;2.91;100.00;100866.34;5051063;28;20025;-66
2022/12/08 03:12:49;;;;;;;13.77;6.75;;;;;;;2.93;100.00;100870.47;5051145;28;20021;-66
2022/12/08 03:15:18;;;;;;;16.67;6.93;;;;;;;2.90;100.00;100869.97;5050899;28;20029;-65
2022/12/08 03:17:52;;;;;;;13.65;7.78;;;;;;;2.97;100.00;100885.03;5050900;28;20473;-66
2022/12/08 03:20:23;;;;;;;10.95;6.38;;;;;;;2.95;100.00;100881.72;5050969;28;20082;-66
2022/12/08 03:22:54;;;;;;;11.85;5.18;;;;;;;3.01;100.00;100880.28;5050842;28;20130;-65
2022/12/08 03:25:21;;;;;;;12.10;5.47;;;;;;;3.01;100.00;100873.25;5050848;28;20021;-65
2022/12/08 03:27:47;;;;;;;12.38;6.25;;;;;;;3.06;100.00;100881.50;5050870;28;20025;-66
2022/12/08 03:30:13;;;;;;;12.70;6.22;;;;;;;3.05;100.00;100874.59;5050542;28;20030;-66
2022/12/08 03:33:03;;;;;;;10.77;4.75;;;;;;;3.09;100.00;100875.13;5050429;28;20032;-66
2022/12/08 03:35:32;;;;;;;10.85;4.97;;;;;;;3.08;100.00;100866.38;5050087;28;20075;-66
2022/12/08 03:38:03;;;;;;;9.02;5.00;;;;;;;3.03;100.00;100844.09;5050055;28;20108;-66
2022/12/08 03:40:28;;;;;;;12.93;5.45;;;;;;;3.10;100.00;100850.44;5050339;28;20041;-66
2022/12/08 03:42:53;;;;;;;11.57;6.00;;;;;;;3.08;100.00;100841.84;5050490;28;20395;-66
2022/12/08 03:45:20;;;;;;;10.32;4.85;;;;;;;3.02;100.00;100832.75;5050436;28;20029;-66
2022/12/08 03:47:46;;;;;;;11.55;5.28;;;;;;;3.03;100.00;100834.38;5050374;28;20028;-66
2022/12/08 03:50:12;;;;;;;13.63;5.95;;;;;;;3.05;100.00;100829.81;5050554;28;20373;-66
2022/12/08 03:52:37;;;;;;;12.02;5.53;;;;;;;3.05;100.00;100834.25;5052308;28;20035;-66
2022/12/08 03:55:03;;;;;;;13.30;5.72;;;;;;;3.02;100.00;100829.28;5069114;28;20036;-68
2022/12/08 03:57:28;;;;;;;13.27;5.97;;;;;;;3.06;100.00;100836.72;5068962;28;20082;-66
2022/12/08 03:59:53;;;;;;;10.15;5.45;;;;;;;3.01;100.00;100822.34;5067733;28;20032;-66
2022/12/08 04:02:19;;;;;;;13.00;5.55;;;;;;;3.05;100.00;100827.16;5069057;28;20025;-66
2022/12/08 04:04:44;;;;;;;12.52;6.03;;;;;;;3.01;100.00;100817.91;5069229;28;20028;-65
2022/12/08 04:07:09;;;;;;;12.55;6.40;;;;;;;3.06;100.00;100822.72;5069326;28;20383;-66
2022/12/08 04:09:35;;;;;;;11.32;6.20;;;;;;;3.06;100.00;100833.25;5069293;28;20040;-66
2022/12/08 04:12:00;;;;;;;11.98;6.03;;;;;;;3.08;100.00;100815.50;5069390;28;20146;-65
2022/12/08 04:14:25;;;;;;;13.07;6.50;;;;;;;3.05;100.00;100807.91;5068967;28;20681;-65
2022/12/08 04:16:51;;;;;;;11.73;5.85;;;;;;;3.08;100.00;100811.06;5069113;28;20428;-66
2022/12/08 04:19:16;;;;;;;13.25;6.53;;;;;;;3.08;100.00;100811.06;5067918;28;20040;-66
2022/12/08 04:21:41;;;;;;;16.60;6.80;;;;;;;3.06;100.00;100801.63;5061427;28;20082;-66
2022/12/08 04:24:08;;;;;;;15.38;7.15;;;;;;;3.11;100.00;100811.75;5048600;28;20028;-66
2022/12/08 04:26:33;;;;;;;16.52;7.60;;;;;;;3.12;100.00;100800.22;5049926;28;20411;-66
2022/12/08 04:28:58;;;;;;;16.38;7.97;;;;;;;3.12;100.00;100800.22;5050058;28;20025;-66
2022/12/08 04:31:24;;;;;;;18.27;7.93;;;;;;;3.13;100.00;100794.81;5049857;28;20960;-65
2022/12/08 04:33:49;;;;;;;19.27;8.95;;;;;;;3.11;100.00;100795.94;5049920;28;20032;-65
2022/12/08 04:36:14;;;;;;;20.05;9.18;;;;;;;3.14;100.00;100793.00;5049694;28;20059;-66
2022/12/08 04:38:40;;;;;;;21.20;9.52;;;;;;;3.15;100.00;100789.41;5049765;28;20037;-66
2022/12/08 04:41:05;;;;;;;24.30;10.05;;;;;;;3.08;100.00;100794.41;5049753;28;20044;-66
2022/12/08 04:43:31;;;;;;;20.25;10.20;;;;;;;3.08;100.00;100778.63;5049086;28;20032;-66
2022/12/08 04:45:56;;;;;;;21.27;10.10;;;;;;;3.16;100.00;100797.13;5049334;28;20036;-66
2022/12/08 04:48:22;;;;;;;23.10;11.57;;;;;;;3.14;100.00;100796.44;5049712;28;20025;-65
2022/12/08 04:50:47;;;;;;;24.83;11.88;;;;;;;3.12;100.00;100790.53;5049707;28;20052;-66
2022/12/08 04:53:13;;;;;;;24.33;12.88;;;;;;;3.18;100.00;100799.63;5049720;28;20515;-66
2022/12/08 04:55:43;;;;;;;20.52;9.85;;;;;;;3.17;100.00;100796.19;5049674;28;20396;-66
2022/12/08 04:58:13;;;;;;;23.73;11.35;;;;;;;3.19;100.00;100798.66;5049707;28;20369;-65
2022/12/08 05:00:39;;;;;;;25.73;12.38;;;;;;;3.14;100.00;100788.53;5049278;28;20119;-66
2022/12/08 05:03:04;;;;;;;26.35;13.82;;;;;;;3.16;100.00;100783.13;5048971;28;20166;-66
2022/12/08 05:05:30;;;;;;;22.92;10.90;;;;;;;3.16;100.00;100788.41;5051559;28;20025;-66
2022/12/08 05:07:55;;;;;;;26.60;11.70;;;;;;;3.16;100.00;100786.59;5072438;28;20086;-66
2022/12/08 05:10:21;;;;;;;21.65;8.80;;;;;;;3.16;100.00;100786.59;5070970;28;20141;-66
2022/12/08 05:12:46;;;;;;;18.52;9.25;;;;;;;3.10;100.00;100789.84;5072566;28;20020;-66
2022/12/08 05:15:11;;;;;;;19.45;9.13;;;;;;;3.13;100.00;100788.72;5072354;28;20036;-66
2022/12/08 05:17:37;;;;;;;15.48;8.35;;;;;;;3.02;100.00;100769.50;5072415;28;20039;-66
2022/12/08 05:20:02;;;;;;;18.52;8.13;;;;;;;3.13;100.00;100791.34;5072464;28;20036;-65
2022/12/08 05:22:28;;;;;;;15.23;6.57;;;;;;;3.13;100.00;100791.34;5071954;28;20613;-66
2022/12/08 05:24:53;;;;;;;14.13;6.70;;;;;;;3.14;100.00;100788.53;5072219;28;20028;-66
2022/12/08 05:27:18;;;;;;;16.88;7.10;;;;;;;3.13;100.00;100788.72;5072322;28;20036;-66
2022/12/08 05:29:44;;;;;;;18.05;8.43;;;;;;;3.13;100.00;100796.63;5072159;28;20055;-65
2022/12/08 05:32:09;;;;;;;16.77;6.93;;;;;;;3.12;100.00;100798.44;5071842;28;20036;-65
2022/12/08 05:34:34;;;;;;;19.27;7.53;;;;;;;3.10;100.00;100804.81;5071725;28;20385;-66
2022/12/08 05:37:00;;;;;;;17.25;7.30;;;;;;;3.01;100.00;100796.84;5071989;28;20037;-65
2022/12/08 05:39:25;;;;;;;11.00;5.15;;;;;;;3.00;100.00;100784.63;5072071;28;20127;-65
2022/12/08 05:41:50;;;;;;;16.65;6.28;;;;;;;2.97;100.00;100798.09;5072005;28;20032;-65
2022/12/08 05:44:16;;;;;;;13.52;5.00;;;;;;;2.94;100.00;100798.41;5072016;28;20039;-65
2022/12/08 05:46:41;;;;;;;12.65;5.80;;;;;;;2.90;100.00;100786.50;5071632;28;20119;-69
2022/12/08 05:49:06;;;;;;;12.55;5.43;;;;;;;2.90;100.00;100786.50;5064520;28;20033;-69
2022/12/08 05:51:32;;;;;;;9.63;4.95;;;;;;;2.83;100.00;100774.91;5061798;28;20036;-69
2022/12/08 05:53:57;;;;;;;10.68;4.18;;;;;;;2.88;100.00;100775.28;5066525;28;20119;-69
2022/12/08 05:56:23;;;;;;;7.30;4.40;;;;;;;2.86;100.00;100774.63;5061683;28;20065;-69
2022/12/08 05:58:49;;;;;;;10.43;3.95;;;;;;;2.79;100.00;100768.28;5063124;28;21050;-69
2022/12/08 06:01:26;;;;;;;12.13;3.85;;;;;;;2.82;100.00;100768.78;5061918;28;20079;-69
2022/12/08 06:03:53;;;;;;;8.48;3.92;;;;;;;2.80;100.00;100769.91;5058353;28;20107;-69
2022/12/08 06:06:18;;;;;;;8.57;3.92;;;;;;;2.79;100.00;100771.72;5060146;28;20029;-69
2022/12/08 06:08:44;;;;;;;6.97;3.05;;;;;;;2.78;100.00;100770.09;5059068;28;20182;-69
2022/12/08 06:11:17;;;;;;;8.23;3.97;;;;;;;2.77;100.00;100765.78;5064448;28;20036;-69
2022/12/08 06:13:42;;;;;;;7.40;2.88;;;;;;;2.77;100.00;100768.41;5059982;28;20021;-69
2022/12/08 06:16:08;;;;;;;5.70;2.88;;;;;;;2.77;100.00;100771.03;5054425;28;20048;-69
2022/12/08 06:18:33;;;;;;;6.25;2.80;;;;;;;2.78;100.00;100769.25;5060548;28;20032;-69
2022/12/08 06:21:07;;;;;;;7.22;3.03;;;;;;;2.75;100.00;100767.75;5059405;28;20024;-69
2022/12/08 06:23:33;;;;;;;5.18;3.03;;;;;;;2.75;100.00;100769.53;5064557;28;20056;-65
2022/12/08 06:26:07;;;;;;;5.88;3.05;;;;;;;2.77;100.00;100775.50;5071103;28;20024;-65
2022/12/08 06:28:33;;;;;;;5.90;2.97;;;;;;;2.72;100.00;100760.13;5071176;28;20024;-65
2022/12/08 06:30:59;;;;;;;6.30;3.40;;;;;;;2.77;100.00;100768.41;5071121;28;20029;-65
2022/12/08 06:33:25;;;;;;;7.22;3.40;;;;;;;2.66;100.00;100749.38;5070957;28;20032;-65
2022/12/08 06:35:51;;;;;;;5.68;3.30;;;;;;;2.78;100.00;100761.34;5070860;28;20090;-65
2022/12/08 06:38:16;;;;;;;5.28;2.95;;;;;;;2.78;100.00;100758.72;5070895;28;20029;-65
2022/12/08 06:40:42;;;;;;;5.57;3.20;;;;;;;2.76;100.00;100745.69;5070779;28;20430;-65
2022/12/08 06:43:07;;;;;;;9.70;3.28;;;;;;;2.78;100.00;100740.28;5070779;28;20025;-65
2022/12/08 06:45:32;;;;;;;5.93;2.85;;;;;;;2.82;100.00;100752.16;5070964;28;20019;-65
2022/12/08 06:48:00;;;;;;;4.55;2.83;;;;;;;2.66;100.00;100733.56;5070611;28;20090;-66
2022/12/08 06:50:25;;;;;;;8.75;3.78;;;;;;;2.85;100.00;100757.13;5070642;28;20035;-65
2022/12/08 06:52:51;;;;;;;13.00;4.35;;;;;;;2.83;100.00;100753.84;5070686;28;20119;-65
2022/12/08 06:55:16;;;;;;;4.88;2.70;;;;;;;2.81;100.00;100750.53;5070614;28;20032;-65
2022/12/08 06:57:41;;;;;;;5.88;3.13;;;;;;;2.79;100.00;100752.47;5069164;28;20032;-65
2022/12/08 07:00:07;;;;;;;5.18;2.80;;;;;;;2.84;100.00;100761.59;5070375;28;20032;-65
2022/12/08 07:02:33;;;;;;;6.40;3.00;;;;;;;2.83;100.00;100762.56;5070144;28;20115;-65
2022/12/08 07:04:58;;;;;;;4.97;2.70;;;;;;;2.83;100.00;100749.41;5069850;28;20116;-66
2022/12/08 07:07:23;;;;;;;5.15;2.92;;;;;;;2.84;100.00;100751.03;5070167;28;20033;-65
2022/12/08 07:09:49;;;;;;;5.45;2.85;;;;;;;2.82;100.00;100760.88;5068751;28;20072;-66
2022/12/08 07:12:14;;;;;;;4.78;2.63;;;;;;;2.84;100.00;100758.13;5068750;28;20024;-65
2022/12/08 07:14:40;;;;;;;5.88;3.35;;;;;;;2.82;100.00;100755.63;5070048;28;20036;-65
2022/12/08 07:17:05;;;;;;;4.47;2.75;;;;;;;2.79;100.00;100750.66;5070205;28;20036;-66
2022/12/08 07:19:30;;;;;;;8.10;4.15;;;;;;;2.79;100.00;100766.47;5069927;28;20056;-66
2022/12/08 07:21:55;;;;;;;5.03;3.30;;;;;;;2.79;100.00;100761.19;5069859;28;20513;-65
2022/12/08 07:24:21;;;;;;;5.03;3.17;;;;;;;2.80;100.00;100765.50;5070024;28;20067;-66
2022/12/08 07:26:46;;;;;;;5.55;2.88;;;;;;;2.81;100.00;100766.31;5069876;28;20021;-66
2022/12/08 07:29:12;;;;;;;4.97;3.30;;;;;;;2.79;100.00;100763.81;5069362;28;20581;-66
2022/12/08 07:31:37;;;;;;;5.00;2.90;;;;;;;2.81;100.00;100750.53;5069653;28;20031;-66
2022/12/08 07:34:02;;;;;;;5.57;2.80;;;;;;;2.65;100.00;100727.47;5069718;28;20119;-66
2022/12/08 07:36:28;;;;;;;3.40;2.67;;;;;;;2.72;100.00;100738.22;5069863;28;20061;-65
2022/12/08 07:38:53;;;;;;;5.97;3.20;;;;;;;2.73;100.00;100745.19;5069735;28;20028;-66
2022/12/08 07:41:21;;;;;;;6.35;3.65;;;;;;;2.80;100.00;100756.75;5069746;28;20379;-65
2022/12/08 07:43:47;;;;;;;4.85;3.08;;;;;;;2.80;100.00;100754.13;5069552;28;20047;-65
2022/12/08 07:46:14;;;;;;;4.53;3.13;;;;;;;2.81;100.00;100750.53;5069453;28;20059;-66
2022/12/08 07:48:40;;;;;;;3.85;2.60;;;;;;;2.82;100.00;100747.72;5069793;28;20016;-65
2022/12/08 07:51:06;;;;;;;6.82;2.95;;;;;;;2.84;100.00;100750.22;5069678;28;20035;-65
2022/12/08 07:53:32;;;;;;;3.50;2.90;;;;;;;2.85;100.00;100751.88;5069376;28;20032;-66
2022/12/08 07:55:58;;;;;;;4.25;3.05;;;;;;;2.88;100.00;100751.56;5069421;28;20028;-66
2022/12/08 07:58:24;;;;;;;8.23;3.10;;;;;;;2.85;100.00;100749.22;5069391;28;20033;-66
2022/12/08 08:00:50;;;;;;;7.93;3.20;;;;;;;2.91;100.00;100755.72;5069235;28;20375;-66
2022/12/08 08:03:15;;;;;;;6.45;3.25;;;;;;;2.83;100.00;100740.69;5069271;28;20028;-66
2022/12/08 08:05:43;;;;;;;7.43;3.83;;;;;;;2.84;100.00;100748.41;5068842;28;20394;-66
2022/12/08 08:08:09;;;;;;;6.00;2.88;;;;;;;2.89;100.00;100755.88;5068963;28;20024;-66
2022/12/08 08:10:34;;;;;;;10.82;4.45;;;;;;;2.94;100.00;100768.59;5068929;28;20552;-66
2022/12/08 08:13:00;;;;;;;6.93;4.07;;;;;;;2.94;100.00;100779.97;5069157;28;20032;-66
2022/12/08 08:15:26;;;;;;;7.00;4.22;;;;;;;2.93;100.00;100783.56;5058449;28;20074;-65
2022/12/08 08:17:52;;;;;;;7.55;3.72;;;;;;;2.88;100.00;100766.53;5054318;28;20060;-65
2022/12/08 08:20:18;;;;;;;7.65;4.55;;;;;;;2.83;100.00;100773.09;5054231;28;20052;-72
2022/12/08 08:22:48;;;;;;;5.53;3.88;;;;;;;2.77;100.00;100770.22;5053347;28;20569;-72
2022/12/08 08:25:15;;;;;;;6.43;3.78;;;;;;;2.77;100.00;100772.84;5053897;28;20020;-73
2022/12/08 08:27:41;;;;;;;7.50;4.82;;;;;;;2.76;100.00;100768.56;5053179;28;20027;-69
2022/12/08 08:30:09;;;;;;;8.80;4.47;;;;;;;2.75;100.00;100770.38;5053499;28;20032;-71
2022/12/08 08:32:35;;;;;;;7.53;3.83;;;;;;;2.79;100.00;100781.44;5052650;28;20029;-71
2022/12/08 08:35:01;;;;;;;6.70;3.80;;;;;;;2.79;100.00;100773.53;5051970;28;20035;-72
2022/12/08 08:37:26;;;;;;;7.20;5.28;;;;;;;2.81;100.00;100774.22;5051521;28;20021;-72
2022/12/08 08:39:52;;;;;;;8.27;4.53;;;;;;;2.83;100.00;100767.84;5053446;28;20031;-71
2022/12/08 08:42:17;;;;;;;5.43;3.58;;;;;;;2.84;100.00;100769.47;5056576;28;20032;-72
2022/12/08 08:44:42;;;;;;;5.10;3.75;;;;;;;2.88;100.00;100771.81;5057045;28;20025;-72
2022/12/08 08:47:08;;;;;;;5.40;3.22;;;;;;;2.91;100.00;100763.59;5058394;28;20024;-70
2022/12/08 08:49:34;;;;;;;5.32;3.25;;;;;;;2.90;100.00;100764.59;5058157;28;20472;-71
2022/12/08 08:51:59;;;;;;;5.32;3.10;;;;;;;2.88;100.00;100775.28;5058028;28;20021;-69
2022/12/08 08:54:24;;;;;;;6.30;3.10;;;;;;;2.86;100.00;100764.06;5057260;28;20444;-69
2022/12/08 08:56:51;;;;;;;5.85;3.50;;;;;;;2.87;100.00;100776.25;5057325;28;20029;-69
2022/12/08 08:59:16;;;;;;;5.20;3.40;;;;;;;2.88;100.00;100775.28;5058146;28;20029;-70
2022/12/08 09:01:42;;;;;;;9.18;4.00;;;;;;;2.89;100.00;100766.41;5058472;28;20032;-69
2022/12/08 09:04:08;;;;;;;8.38;4.28;;;;;;;2.90;100.00;100783.03;5057916;28;20075;-69
2022/12/08 09:06:33;;;;;;;5.50;3.15;;;;;;;2.90;100.00;100781.22;5057139;28;20488;-69
2022/12/08 09:08:59;;;;;;;6.10;3.78;;;;;;;2.90;100.00;100781.22;5056821;28;20097;-69
2022/12/08 09:11:24;;;;;;;7.05;3.10;;;;;;;2.86;100.00;100779.88;5057306;28;20029;-68
2022/12/08 09:13:50;;;;;;;5.72;2.72;;;;;;;2.77;100.00;100776.31;5058228;28;20021;-68
2022/12/08 09:16:17;;;;;;;3.83;2.40;;;;;;;2.81;100.00;100785.59;5057333;28;20090;-68
2022/12/08 09:18:42;;;;;;;4.05;2.00;;;;;;;2.76;100.00;100785.19;5057298;28;20028;-66
2022/12/08 09:21:12;;;;;;;4.95;2.10;;;;;;;2.68;100.00;100777.22;5058068;28;20471;-65
2022/12/08 09:23:38;;;;;;;5.18;2.60;;;;;;;2.67;100.00;100779.97;5057707;28;20069;-65
2022/12/08 09:26:04;;;;;;;3.33;1.92;;;;;;;2.59;100.00;100763.13;5057531;28;20064;-65
2022/12/08 09:28:29;;;;;;;2.55;1.90;;;;;;;2.68;100.00;100774.56;5058017;28;20131;-65
2022/12/08 09:30:55;;;;;;;3.78;2.30;;;;;;;2.70;100.00;100769.16;5057057;28;20035;-65
2022/12/08 09:33:20;;;;;;;2.40;1.70;;;;;;;2.70;100.00;100777.03;5056269;28;20119;-66
2022/12/08 09:35:45;;;;;;;2.67;1.88;;;;;;;2.68;100.00;100771.13;5055958;28;20139;-66
2022/12/08 09:38:11;;;;;;;5.10;2.42;;;;;;;2.73;100.00;100768.88;5057271;28;20038;-66
2022/12/08 09:40:47;;;;;;;3.38;2.28;;;;;;;2.76;100.00;100764.13;5057564;28;20028;-66
2022/12/08 09:43:23;;;;;;;2.63;1.95;;;;;;;2.87;100.00;100775.44;5063529;28;20682;-66
2022/12/08 09:45:50;;;;;;;4.32;2.38;;;;;;;2.89;100.00;100766.41;5056156;28;20028;-66
2022/12/08 09:48:34;;;;;;;3.90;2.60;;;;;;;3.00;100.00;100758.28;5057208;28;20116;-66
2022/12/08 09:51:01;;;;;;;8.05;3.92;;;;;;;3.06;100.00;100762.13;5055978;28;20051;-68
2022/12/08 09:53:41;;;;;;;6.30;4.18;;;;;;;3.12;100.00;100766.81;5055849;28;20017;-69
2022/12/08 09:56:22;;;;;;;6.15;3.28;;;;;;;3.16;100.00;100767.31;5056984;28;20033;-68
2022/12/08 09:59:08;;;;;;;5.20;3.28;;;;;;;3.23;100.00;100769.22;5056274;28;20388;-70
2022/12/08 10:01:40;;;;;;;6.07;3.80;;;;;;;3.21;100.00;100760.63;5056367;28;20064;-70
2022/12/08 10:04:13;;;;;;;;;;;;;;;3.32;100.00;100767.47;5055554;28;20429;-70
2022/12/08 10:06:46;;;;;;;5.85;3.70;;;;;;;3.37;100.00;100761.75;5055202;28;20005;-70
2022/12/08 10:09:24;;;;;;;9.00;4.53;;;;;;;3.38;100.00;100761.59;5055154;28;20536;-70
2022/12/08 10:12:12;;;;;;;5.82;3.45;;;;;;;3.41;100.00;100750.75;5053591;28;20025;-70
2022/12/08 10:14:41;;;;;;;6.78;3.20;;;;;;;3.43;100.00;100761.97;5054073;28;20021;-70
2022/12/08 10:17:20;;;;;;;4.60;3.47;;;;;;;3.41;100.00;100753.38;5055231;28;20427;-69
2022/12/08 10:19:47;;;;;;;5.90;3.40;;;;;;;3.39;100.00;100751.88;5054937;28;20052;-70
2022/12/08 10:22:23;;;;;;;6.88;2.78;;;;;;;3.39;100.00;100743.97;5055203;28;21221;-69
2022/12/08 10:24:58;;;;;;;4.60;3.10;;;;;;;3.37;100.00;100744.13;5055275;28;20035;-69
2022/12/08 10:27:25;;;;;;;5.88;3.03;;;;;;;3.34;100.00;100747.06;5055735;28;20037;-70
2022/12/08 10:29:50;;;;;;;7.57;3.10;;;;;;;3.35;100.00;100737.34;5055785;28;20428;-70
2022/12/08 10:32:22;;;;;;;7.03;2.60;;;;;;;3.36;100.00;100739.00;5056290;28;20025;-69
2022/12/08 10:35:13;;;;;;;7.82;3.90;;;;;;;3.38;100.00;100734.41;5056391;28;20029;-69
2022/12/08 10:37:39;;;;;;;6.63;2.97;;;;;;;3.36;100.00;100745.09;5056077;28;20029;-69
2022/12/08 10:40:11;;;;;;;6.47;2.53;;;;;;;3.36;100.00;100736.38;5059414;28;20091;-69
2022/12/08 10:42:44;;;;;;;9.20;4.28;;;;;;;3.37;100.00;100730.13;5059964;28;20029;-69
2022/12/08 10:45:26;;;;;;;5.03;2.75;;;;;;;3.40;100.00;100733.25;5056082;28;20198;-69
2022/12/08 10:48:04;;;;;;;5.80;3.47;;;;;;;3.43;100.00;100735.63;5062873;28;20083;-69
2022/12/08 10:50:54;;;;;;;7.82;3.92;;;;;;;3.46;100.00;100734.47;5070297;28;20040;-69
2022/12/08 10:53:24;;;;;;;8.05;3.92;;;;;;;3.45;100.00;100736.28;5069502;28;20452;-69
2022/12/08 10:56:13;;;;;;;6.82;3.65;;;;;;;3.39;100.00;100726.34;5056598;28;20025;-70
2022/12/08 10:58:46;;;;;;;5.25;3.15;;;;;;;3.46;100.00;100730.03;5067052;28;20099;-69
2022/12/08 11:01:11;;;;;;;9.55;3.55;;;;;;;3.50;100.00;100728.72;5066115;28;20513;-70
2022/12/08 11:03:53;;;;;;;7.88;4.00;;;;;;;3.55;100.00;100732.72;5059052;28;20095;-70
2022/12/08 11:06:35;;;;;;;8.18;4.03;;;;;;;3.52;100.00;100715.41;5062473;28;20029;-68
2022/12/08 11:09:22;;;;;;;8.25;4.63;;;;;;;3.61;100.00;100718.91;5059228;28;20048;-68
2022/12/08 11:11:51;;;;;;;9.93;4.60;;;;;;;3.68;100.00;100725.25;5051128;28;20025;-68
2022/12/08 11:14:26;;;;;;;7.20;4.05;;;;;;;3.69;100.00;100716.34;5050892;28;20073;-68
2022/12/08 11:16:54;;;;;;;6.90;4.03;;;;;;;3.76;100.00;100719.19;5055018;28;20032;-68
2022/12/08 11:19:20;;;;;;;6.78;4.25;;;;;;;3.76;100.00;100717.38;5070338;28;20029;-68
2022/12/08 11:21:46;;;;;;;10.95;4.70;;;;;;;3.77;100.00;100710.28;5069801;28;20047;-68
2022/12/08 11:24:14;;;;;;;8.93;5.15;;;;;;;3.80;100.00;100715.25;5068659;28;20028;-68
2022/12/08 11:26:47;;;;;;;9.93;5.03;;;;;;;3.79;100.00;100710.97;5070044;28;20040;-68
2022/12/08 11:29:12;;;;;;;12.60;6.28;;;;;;;3.76;100.00;100712.09;5065742;28;20029;-68
2022/12/08 11:31:48;;;;;;;9.70;4.97;;;;;;;3.72;100.00;100705.47;5055708;28;20112;-69